Time;durP1;ratioP1;P1;durP2;ratioP2;P2;SDS_P1;SDS_P2;PMS_P1;PMS_P2;Temp;Humidity;BMP_temperature;BMP_pressure;BME280_temperature;BME280_humidity;BME280_pressure;Samples;Min_cycle;Max_cycle;Signal;HPM_P1;HPM_P2
2021/06/11 00:02:09;;;;;;;4.20;3.27;;;19.20;97.20;;;;;;5044710;28;20610;-73
2021/06/11 00:04:37;;;;;;;3.13;2.83;;;19.30;97.00;;;;;;5043866;28;20451;-73
2021/06/11 00:07:04;;;;;;;4.07;3.67;;;19.30;97.00;;;;;;5044696;28;20537;-73
2021/06/11 00:09:32;;;;;;;4.40;3.50;;;19.30;97.10;;;;;;5044925;28;20470;-73
2021/06/11 00:11:58;;;;;;;3.90;3.50;;;19.20;97.70;;;;;;5044529;28;20461;-74
2021/06/11 00:14:27;;;;;;;9.23;4.13;;;19.20;97.40;;;;;;5043860;28;20437;-73
2021/06/11 00:16:53;;;;;;;4.50;3.73;;;19.20;97.60;;;;;;5044610;28;20496;-73
2021/06/11 00:19:30;;;;;;;4.10;3.50;;;19.20;97.00;;;;;;5044709;28;20431;-73
2021/06/11 00:21:57;;;;;;;3.90;3.53;;;19.20;97.10;;;;;;5043328;28;20427;-74
2021/06/11 00:24:29;;;;;;;3.40;3.10;;;19.20;97.80;;;;;;5044934;28;20677;-73
2021/06/11 00:26:56;;;;;;;6.67;4.07;;;19.20;97.70;;;;;;5043922;28;20463;-73
2021/06/11 00:29:39;;;;;;;4.00;3.60;;;19.10;97.80;;;;;;5042168;28;20479;-73
2021/06/11 00:32:07;;;;;;;4.80;4.30;;;19.10;97.50;;;;;;5042428;28;20519;-73
2021/06/11 00:34:44;;;;;;;4.73;3.70;;;19.20;97.30;;;;;;5041781;28;20498;-73
2021/06/11 00:37:11;;;;;;;6.10;4.07;;;19.10;98.40;;;;;;5037954;28;20538;-73
2021/06/11 00:39:49;;;;;;;5.70;4.13;;;19.10;98.60;;;;;;5043412;28;20435;-73
2021/06/11 00:42:15;;;;;;;4.83;4.43;;;19.10;98.50;;;;;;5043945;28;20530;-73
2021/06/11 00:44:50;;;;;;;5.33;3.63;;;19.10;97.90;;;;;;5044647;28;20511;-73
2021/06/11 00:47:17;;;;;;;5.67;2.97;;;19.10;98.20;;;;;;5044132;28;20716;-73
2021/06/11 00:49:59;;;;;;;6.50;3.67;;;19.00;99.20;;;;;;5043822;28;20731;-73
2021/06/11 00:52:26;;;;;;;4.27;3.20;;;19.00;99.70;;;;;;5044068;28;20443;-74
2021/06/11 00:55:08;;;;;;;4.40;4.00;;;18.90;99.90;;;;;;5043885;28;20685;-73
2021/06/11 00:57:36;;;;;;;4.70;3.67;;;18.90;99.90;;;;;;5038910;28;20730;-74
2021/06/11 01:00:06;;;;;;;5.10;4.10;;;18.80;99.90;;;;;;5043898;28;20478;-73
2021/06/11 01:02:40;;;;;;;5.03;4.50;;;18.80;99.90;;;;;;5147579;23;20490;-75
2021/06/11 01:05:09;;;;;;;5.07;4.50;;;18.70;99.90;;;;;;5066107;28;20505;-75
2021/06/11 01:07:37;;;;;;;6.93;4.63;;;18.70;99.90;;;;;;5043376;28;20455;-74
2021/06/11 01:10:22;;;;;;;4.30;3.90;;;18.60;99.90;;;;;;5055833;28;20479;-73
2021/06/11 01:12:49;;;;;;;3.70;3.30;;;18.70;99.90;;;;;;5051478;28;20454;-74
2021/06/11 01:15:25;;;;;;;5.47;4.10;;;18.60;99.90;;;;;;5044496;28;20437;-74
2021/06/11 01:17:53;;;;;;;4.53;4.13;;;18.70;99.90;;;;;;5047033;28;20514;-74
2021/06/11 01:20:22;;;;;;;4.70;3.67;;;18.50;99.90;;;;;;5051489;28;20485;-74
2021/06/11 01:23:14;;;;;;;5.47;4.00;;;18.60;99.90;;;;;;5045291;28;20684;-74
2021/06/11 01:25:51;;;;;;;5.70;4.20;;;18.60;99.90;;;;;;5032378;28;20509;-74
2021/06/11 01:28:21;;;;;;;5.63;4.80;;;18.50;99.90;;;;;;5057161;28;20478;-73
2021/06/11 01:30:51;;;;;;;4.83;4.40;;;18.60;99.90;;;;;;5056941;28;20517;-73
2021/06/11 01:33:20;;;;;;;5.03;3.90;;;18.60;99.90;;;;;;5048419;28;20438;-74
2021/06/11 01:35:52;;;;;;;5.20;3.77;;;18.60;99.90;;;;;;5049679;28;20513;-74
2021/06/11 01:38:22;;;;;;;5.43;4.40;;;18.60;99.90;;;;;;5057075;28;20438;-74
2021/06/11 01:40:50;;;;;;;4.50;4.10;;;18.60;99.90;;;;;;5045562;28;20431;-74
2021/06/11 01:43:20;;;;;;;7.10;4.03;;;18.60;99.90;;;;;;5042987;28;20541;-74
2021/06/11 01:45:48;;;;;;;3.70;3.37;;;18.50;99.90;;;;;;5045529;28;20463;-74
2021/06/11 01:48:16;;;;;;;5.27;4.00;;;18.50;99.90;;;;;;5047072;28;20470;-73
2021/06/11 01:50:44;;;;;;;8.93;4.93;;;18.40;99.90;;;;;;5040811;28;20481;-74
2021/06/11 01:53:13;;;;;;;6.20;4.20;;;18.30;99.90;;;;;;5038248;28;20710;-73
2021/06/11 01:55:42;;;;;;;4.50;4.00;;;18.40;99.90;;;;;;5045857;28;20674;-74
2021/06/11 01:58:11;;;;;;;5.17;3.93;;;18.40;99.90;;;;;;5048080;28;20435;-74
2021/06/11 02:00:40;;;;;;;6.13;5.03;;;18.30;99.90;;;;;;5047761;28;20654;-73
2021/06/11 02:03:08;;;;;;;6.47;5.40;;;18.20;99.90;;;;;;5046921;28;20610;-74
2021/06/11 02:05:35;;;;;;;5.33;4.80;;;18.30;99.90;;;;;;5050560;28;20430;-73
2021/06/11 02:08:03;;;;;;;6.63;4.53;;;18.30;99.90;;;;;;5045850;28;20481;-73
2021/06/11 02:10:31;;;;;;;4.83;4.37;;;18.20;99.90;;;;;;5047439;28;20567;-73
2021/06/11 02:12:58;;;;;;;4.70;4.30;;;18.20;99.90;;;;;;5047086;28;20744;-73
2021/06/11 02:15:27;;;;;;;4.77;4.37;;;18.20;99.90;;;;;;5044135;28;20538;-73
2021/06/11 02:17:57;;;;;;;5.03;3.70;;;18.20;99.90;;;;;;5043300;28;20737;-74
2021/06/11 02:20:25;;;;;;;7.20;4.57;;;18.10;99.90;;;;;;5046004;28;20458;-74
2021/06/11 02:22:53;;;;;;;4.90;4.40;;;18.10;99.90;;;;;;5042718;28;20497;-73
2021/06/11 02:25:23;;;;;;;5.17;4.57;;;18.10;99.90;;;;;;5047220;28;20461;-73
2021/06/11 02:27:51;;;;;;;4.83;4.13;;;18.10;99.90;;;;;;5046839;28;20580;-72
2021/06/11 02:30:20;;;;;;;4.60;4.20;;;18.00;99.90;;;;;;5044806;28;21301;-71
2021/06/11 02:32:48;;;;;;;7.20;5.67;;;18.00;99.90;;;;;;5047591;28;20651;-72
2021/06/11 02:35:18;;;;;;;5.20;4.37;;;18.00;99.90;;;;;;5047056;28;20509;-73
2021/06/11 02:37:46;;;;;;;5.83;4.60;;;17.90;99.90;;;;;;5041216;28;20475;-73
2021/06/11 02:40:14;;;;;;;5.07;4.30;;;17.90;99.90;;;;;;5054108;28;20480;-73
2021/06/11 02:42:45;;;;;;;5.60;4.90;;;17.90;99.90;;;;;;5048297;28;20447;-73
2021/06/11 02:45:14;;;;;;;6.10;4.10;;;17.80;99.90;;;;;;5056185;28;20509;-73
2021/06/11 02:47:44;;;;;;;4.80;4.40;;;17.80;99.90;;;;;;5048544;28;20509;-73
2021/06/11 02:50:14;;;;;;;6.47;5.13;;;17.70;99.90;;;;;;5046248;28;20488;-73
2021/06/11 02:52:47;;;;;;;5.73;4.63;;;17.70;99.90;;;;;;5045958;28;20518;-74
2021/06/11 02:55:17;;;;;;;7.22;4.50;;;17.70;99.90;;;;;;5055747;28;20452;-73
2021/06/11 02:57:50;;;;;;;8.20;5.83;;;17.70;99.90;;;;;;5044650;28;20227;-73
2021/06/11 03:00:20;;;;;;;5.10;4.60;;;17.60;99.90;;;;;;5047574;28;20440;-73
2021/06/11 03:02:52;;;;;;;8.30;4.85;;;17.70;99.90;;;;;;5044452;28;20454;-74
2021/06/11 03:05:21;;;;;;;6.70;5.22;;;17.70;99.90;;;;;;5042833;28;20210;-73
2021/06/11 03:07:54;;;;;;;5.33;4.47;;;17.70;99.90;;;;;;5050594;28;20234;-73
2021/06/11 03:10:25;;;;;;;6.93;5.80;;;17.80;99.90;;;;;;5044806;28;20685;-74
2021/06/11 03:12:52;;;;;;;7.90;6.27;;;17.90;99.90;;;;;;5051948;28;20660;-73
2021/06/11 03:15:19;;;;;;;7.33;6.17;;;17.90;99.90;;;;;;5044099;28;20461;-73
2021/06/11 03:17:49;;;;;;;7.77;6.97;;;18.00;99.90;;;;;;5052142;28;20533;-73
2021/06/11 03:20:20;;;;;;;9.10;8.20;;;18.00;99.90;;;;;;5045191;28;20536;-74
2021/06/11 03:22:53;;;;;;;8.90;7.23;;;18.00;99.90;;;;;;5045602;28;20538;-74
2021/06/11 03:25:26;;;;;;;7.83;7.00;;;18.00;99.90;;;;;;5045402;28;20439;-74
2021/06/11 03:27:55;;;;;;;11.50;9.77;;;18.00;99.90;;;;;;5045679;28;20437;-74
2021/06/11 03:30:25;;;;;;;10.30;9.07;;;18.00;99.90;;;;;;5044537;28;20479;-74
2021/06/11 03:32:54;;;;;;;9.03;8.10;;;17.90;99.90;;;;;;5045399;28;20457;-74
2021/06/11 03:35:26;;;;;;;10.60;9.10;;;17.90;99.90;;;;;;5047244;28;20541;-74
2021/06/11 03:37:56;;;;;;;12.37;9.83;;;17.90;99.90;;;;;;5042011;28;20537;-72
2021/06/11 03:40:25;;;;;;;12.20;10.97;;;17.80;99.90;;;;;;5044216;28;20484;-74
2021/06/11 03:42:59;;;;;;;13.50;11.90;;;17.80;99.90;;;;;;5045349;28;20484;-73
2021/06/11 03:45:30;;;;;;;13.53;12.17;;;17.80;99.90;;;;;;5043846;28;20448;-74
2021/06/11 03:48:00;;;;;;;24.42;13.88;;;17.70;99.90;;;;;;5042538;28;20443;-73
2021/06/11 03:50:28;;;;;;;15.02;13.43;;;17.70;99.90;;;;;;5037385;28;20203;-74
2021/06/11 03:52:59;;;;;;;13.90;12.27;;;17.70;99.90;;;;;;5047053;28;20294;-73
2021/06/11 03:55:28;;;;;;;13.57;12.23;;;17.80;99.90;;;;;;5038247;28;20444;-74
2021/06/11 03:57:59;;;;;;;18.40;13.53;;;17.80;99.90;;;;;;5045583;28;20444;-74
2021/06/11 04:00:29;;;;;;;14.40;13.10;;;17.80;99.90;;;;;;5072347;23;20483;-73
2021/06/11 04:02:56;;;;;;;12.97;11.67;;;17.90;99.90;;;;;;5019372;28;20495;-73
2021/06/11 04:05:23;;;;;;;14.10;12.70;;;18.00;99.90;;;;;;5023334;28;20725;-73
2021/06/11 04:07:53;;;;;;;12.47;11.27;;;18.40;99.90;;;;;;5023901;28;20523;-73
2021/06/11 04:10:28;;;;;;;13.70;11.20;;;19.00;99.90;;;;;;5018041;28;20797;-73
2021/06/11 04:12:56;;;;;;;14.17;11.33;;;19.60;99.90;;;;;;5020936;28;20474;-73
2021/06/11 04:15:27;;;;;;;14.90;11.27;;;20.20;99.90;;;;;;5024242;28;20456;-73
2021/06/11 04:18:12;;;;;;;11.70;10.60;;;20.80;99.90;;;;;;5021936;28;20450;-73
2021/06/11 04:21:09;;;;;;;11.30;8.87;;;21.50;99.90;;;;;;5017264;28;20435;-74
2021/06/11 04:23:39;;;;;;;11.17;9.90;;;22.20;99.90;;;;;;5020913;28;20595;-73
2021/06/11 04:26:09;;;;;;;12.80;9.63;;;22.90;99.90;;;;;;5020858;28;20595;-73
2021/06/11 04:28:36;;;;;;;14.97;11.07;;;23.70;99.70;;;;;;5037642;28;20553;-73
2021/06/11 04:31:03;;;;;;;9.93;8.93;;;24.30;97.30;;;;;;5033936;28;20428;-72
2021/06/11 04:33:31;;;;;;;10.77;8.80;;;24.80;95.90;;;;;;5031997;28;20454;-73
2021/06/11 04:35:58;;;;;;;11.50;10.30;;;25.30;94.40;;;;;;5021625;28;20717;-73
2021/06/11 04:38:26;;;;;;;12.53;10.00;;;25.80;93.10;;;;;;5016119;28;20534;-73
2021/06/11 04:40:53;;;;;;;9.50;8.60;;;26.20;92.00;;;;;;5030814;28;20547;-73
2021/06/11 04:43:24;;;;;;;10.40;9.30;;;26.40;91.40;;;;;;5029375;28;20436;-73
2021/06/11 04:45:51;;;;;;;11.20;10.07;;;26.80;90.80;;;;;;5026083;28;20462;-72
2021/06/11 04:48:18;;;;;;;13.33;9.67;;;27.10;89.50;;;;;;5030444;28;20448;-72
2021/06/11 04:50:44;;;;;;;9.90;8.90;;;27.10;89.00;;;;;;5024177;28;20447;-74
2021/06/11 04:53:11;;;;;;;11.80;9.03;;;27.40;88.40;;;;;;5015239;28;20428;-73
2021/06/11 04:55:38;;;;;;;8.80;8.00;;;27.70;87.80;;;;;;5018705;28;20677;-73
2021/06/11 04:58:04;;;;;;;10.63;8.30;;;28.30;85.60;;;;;;5016843;28;20498;-73
2021/06/11 05:00:36;;;;;;;9.47;8.67;;;28.80;83.60;;;;;;5024944;28;20540;-73
2021/06/11 05:03:02;;;;;;;9.37;8.37;;;29.20;82.90;;;;;;5021418;28;20446;-73
2021/06/11 05:05:29;;;;;;;9.97;7.93;;;29.30;81.50;;;;;;5027791;28;20428;-73
2021/06/11 05:07:55;;;;;;;8.67;7.60;;;29.70;80.60;;;;;;5022034;28;20448;-73
2021/06/11 05:10:22;;;;;;;9.63;8.33;;;30.00;79.30;;;;;;5023485;28;20664;-73
2021/06/11 05:12:49;;;;;;;7.87;7.17;;;30.10;78.20;;;;;;5022904;28;20436;-74
2021/06/11 05:15:18;;;;;;;12.37;7.83;;;30.30;77.00;;;;;;5026926;28;20442;-73
2021/06/11 05:17:46;;;;;;;7.57;6.87;;;30.30;77.30;;;;;;5032966;28;20578;-73
2021/06/11 05:20:14;;;;;;;8.93;7.10;;;30.40;76.70;;;;;;5024519;28;20499;-74
2021/06/11 05:22:41;;;;;;;9.57;8.27;;;30.80;75.80;;;;;;5025266;28;20459;-74
2021/06/11 05:25:09;;;;;;;10.20;8.70;;;30.90;74.30;;;;;;5018091;28;20436;-74
2021/06/11 05:27:35;;;;;;;8.63;7.77;;;30.90;74.60;;;;;;5022004;28;20519;-76
2021/06/11 05:30:02;;;;;;;11.23;8.60;;;31.00;74.40;;;;;;5028136;28;20494;-75
2021/06/11 05:32:30;;;;;;;9.50;8.50;;;31.20;73.20;;;;;;5027769;28;20523;-76
2021/06/11 05:34:58;;;;;;;9.37;7.67;;;31.10;73.20;;;;;;5029583;28;20671;-73
2021/06/11 05:37:25;;;;;;;11.50;8.70;;;31.20;73.00;;;;;;5026414;28;20471;-75
2021/06/11 05:39:52;;;;;;;11.73;8.50;;;31.40;72.50;;;;;;5014845;28;20436;-73
2021/06/11 05:42:18;;;;;;;9.23;8.33;;;31.40;72.50;;;;;;5018393;28;20667;-72
2021/06/11 05:44:45;;;;;;;12.43;9.00;;;31.50;71.60;;;;;;5017105;28;20461;-74
2021/06/11 05:47:12;;;;;;;12.80;9.77;;;31.50;70.30;;;;;;5015717;28;20516;-75
2021/06/11 05:49:39;;;;;;;12.33;8.43;;;31.40;71.40;;;;;;5021315;28;20550;-74
2021/06/11 05:52:08;;;;;;;10.37;9.23;;;31.60;71.50;;;;;;5013895;28;20464;-73
2021/06/11 05:54:35;;;;;;;10.87;9.67;;;31.50;70.80;;;;;;5022318;28;20507;-75
2021/06/11 05:57:03;;;;;;;10.67;9.10;;;31.30;70.60;;;;;;5023914;28;20451;-76
2021/06/11 05:59:30;;;;;;;9.90;8.87;;;31.10;70.50;;;;;;5024193;28;20525;-74
2021/06/11 06:01:56;;;;;;;9.60;8.60;;;31.10;70.50;;;;;;5025795;28;20432;-73
2021/06/11 06:04:23;;;;;;;24.83;21.17;;;31.40;70.50;;;;;;5017844;28;20465;-73
2021/06/11 06:06:50;;;;;;;10.37;8.30;;;31.70;70.30;;;;;;5020462;28;20467;-72
2021/06/11 06:09:18;;;;;;;9.93;8.97;;;32.00;69.80;;;;;;5021977;28;20671;-73
2021/06/11 06:11:45;;;;;;;11.00;9.80;;;32.20;69.00;;;;;;5024014;28;20674;-72
2021/06/11 06:14:12;;;;;;;10.53;9.53;;;32.00;67.00;;;;;;5025174;28;20826;-72
2021/06/11 06:16:39;;;;;;;9.27;8.33;;;32.10;66.50;;;;;;5020183;28;20455;-73
2021/06/11 06:19:06;;;;;;;15.23;11.00;;;32.20;67.40;;;;;;5017810;28;20506;-73
2021/06/11 06:21:33;;;;;;;9.47;8.60;;;32.20;67.20;;;;;;5024240;28;20467;-72
2021/06/11 06:24:01;;;;;;;10.70;9.80;;;32.30;67.20;;;;;;5028224;28;20447;-74
2021/06/11 06:26:30;;;;;;;11.53;9.73;;;32.40;65.40;;;;;;5017958;28;20467;-73
2021/06/11 06:28:57;;;;;;;10.33;9.20;;;32.20;65.10;;;;;;5026455;28;20434;-73
2021/06/11 06:31:24;;;;;;;12.87;9.10;;;32.10;65.70;;;;;;5017463;28;20443;-74
2021/06/11 06:33:51;;;;;;;10.60;9.50;;;32.20;66.20;;;;;;5027706;28;20436;-73
2021/06/11 06:36:17;;;;;;;12.30;9.17;;;32.30;65.90;;;;;;5015583;28;20500;-72
2021/06/11 06:38:45;;;;;;;9.63;8.63;;;32.50;64.90;;;;;;5007474;28;20548;-72
2021/06/11 06:41:16;;;;;;;9.17;8.27;;;32.90;64.40;;;;;;5018206;28;20423;-74
2021/06/11 06:43:45;;;;;;;9.70;8.70;;;33.40;63.50;;;;;;5025284;28;20568;-75
2021/06/11 06:46:15;;;;;;;8.77;7.90;;;33.60;60.60;;;;;;5015222;28;20457;-73
2021/06/11 06:48:42;;;;;;;8.13;7.43;;;33.60;60.00;;;;;;5021230;28;20833;-75
2021/06/11 06:51:09;;;;;;;9.70;8.43;;;33.40;60.70;;;;;;5013100;28;20499;-73
2021/06/11 06:53:36;;;;;;;9.23;8.30;;;33.80;61.10;;;;;;5023446;28;20439;-75
2021/06/11 06:56:03;;;;;;;11.47;8.27;;;34.00;61.00;;;;;;5024142;28;20452;-71
2021/06/11 06:58:29;;;;;;;10.90;8.07;;;33.60;60.10;;;;;;5025469;28;20639;-72
2021/06/11 07:00:58;;;;;;;11.67;7.80;;;33.80;61.10;;;;;;5028324;28;20459;-70
2021/06/11 07:03:24;;;;;;;6.50;5.90;;;34.10;60.70;;;;;;5020048;28;20440;-71
2021/06/11 07:05:51;;;;;;;10.30;7.30;;;34.40;59.10;;;;;;5028820;28;20469;-71
2021/06/11 07:08:17;;;;;;;8.50;6.40;;;34.20;57.40;;;;;;5025636;28;20520;-72
2021/06/11 07:10:45;;;;;;;7.67;6.30;;;34.40;57.40;;;;;;5026522;28;20440;-72
2021/06/11 07:13:12;;;;;;;10.60;8.23;;;34.70;56.80;;;;;;5020650;28;20770;-71
2021/06/11 07:15:39;;;;;;;6.67;5.97;;;34.90;57.10;;;;;;5024325;28;20526;-71
2021/06/11 07:18:08;;;;;;;7.10;5.60;;;35.00;56.00;;;;;;5022574;28;20437;-72
2021/06/11 07:20:35;;;;;;;6.20;4.73;;;35.00;53.20;;;;;;5025976;28;20492;-72
2021/06/11 07:23:01;;;;;;;5.33;3.60;;;34.90;51.80;;;;;;5014642;28;20499;-72
2021/06/11 07:25:29;;;;;;;7.13;4.30;;;34.90;52.70;;;;;;5008179;28;20544;-72
2021/06/11 07:27:56;;;;;;;5.40;3.87;;;35.20;52.30;;;;;;5025890;28;20459;-71
2021/06/11 07:30:23;;;;;;;3.77;2.80;;;35.10;52.30;;;;;;5030658;28;20442;-72
2021/06/11 07:32:49;;;;;;;5.43;2.97;;;35.20;51.40;;;;;;5025866;28;20447;-72
2021/06/11 07:35:20;;;;;;;2.37;1.90;;;35.00;50.70;;;;;;5025362;28;20454;-72
2021/06/11 07:37:46;;;;;;;4.17;3.20;;;35.20;49.30;;;;;;5030828;28;20566;-72
2021/06/11 07:40:16;;;;;;;4.80;4.07;;;35.40;50.90;;;;;;5024714;28;20472;-72
2021/06/11 07:42:43;;;;;;;5.13;4.63;;;35.50;52.00;;;;;;5029072;28;20548;-72
2021/06/11 07:45:11;;;;;;;6.57;4.93;;;35.70;51.60;;;;;;5027763;28;20517;-71
2021/06/11 07:47:38;;;;;;;4.97;3.80;;;35.70;50.90;;;;;;5022992;28;20489;-71
2021/06/11 07:50:05;;;;;;;3.77;3.33;;;35.50;51.30;;;;;;5020055;28;20425;-71
2021/06/11 07:52:36;;;;;;;4.80;3.20;;;35.90;50.40;;;;;;5025283;28;20444;-72
2021/06/11 07:55:02;;;;;;;4.00;3.60;;;36.10;50.40;;;;;;5023557;28;20440;-72
2021/06/11 07:57:29;;;;;;;8.93;3.33;;;36.50;50.10;;;;;;5024743;28;20466;-72
2021/06/11 07:59:56;;;;;;;4.50;3.73;;;36.80;49.70;;;;;;5024274;28;20490;-72
2021/06/11 08:02:22;;;;;;;5.13;4.63;;;36.50;48.20;;;;;;5024832;28;20446;-72
2021/06/11 08:04:49;;;;;;;4.33;3.80;;;35.40;48.90;;;;;;5021550;28;20435;-71
2021/06/11 08:07:17;;;;;;;7.50;5.03;;;35.30;50.80;;;;;;5021342;28;20458;-72
2021/06/11 08:09:45;;;;;;;6.60;3.87;;;34.90;50.60;;;;;;5024584;28;20515;-71
2021/06/11 08:12:13;;;;;;;4.73;4.07;;;35.20;51.90;;;;;;5024396;28;20431;-71
2021/06/11 08:14:40;;;;;;;5.17;4.40;;;35.60;52.20;;;;;;5023259;28;20523;-71
2021/06/11 08:17:06;;;;;;;6.70;4.93;;;36.30;52.20;;;;;;5024327;28;20448;-72
2021/06/11 08:19:33;;;;;;;8.40;5.93;;;36.60;51.60;;;;;;5031988;28;20536;-72
2021/06/11 08:22:00;;;;;;;6.17;5.67;;;36.60;50.40;;;;;;5027931;28;20439;-71
2021/06/11 08:24:26;;;;;;;8.17;6.00;;;36.80;50.60;;;;;;5024994;28;20548;-71
2021/06/11 08:26:54;;;;;;;9.43;6.23;;;37.10;50.80;;;;;;5024663;28;20456;-71
2021/06/11 08:29:23;;;;;;;7.50;6.70;;;37.20;50.30;;;;;;5029912;28;20444;-71
2021/06/11 08:31:50;;;;;;;9.10;6.97;;;37.20;50.20;;;;;;5023697;28;20599;-70
2021/06/11 08:34:17;;;;;;;9.40;7.23;;;36.90;50.00;;;;;;5016407;28;20432;-71
2021/06/11 08:36:43;;;;;;;6.00;5.47;;;36.70;49.70;;;;;;5024689;28;20459;-71
2021/06/11 08:39:10;;;;;;;6.60;6.00;;;36.30;50.70;;;;;;5023821;28;20479;-71
2021/06/11 08:41:37;;;;;;;6.70;6.00;;;36.20;50.80;;;;;;5024741;28;20518;-72
2021/06/11 08:44:06;;;;;;;8.03;6.23;;;36.40;50.60;;;;;;5018490;28;20486;-72
2021/06/11 08:46:34;;;;;;;6.73;6.13;;;36.30;50.60;;;;;;5017952;28;20452;-71
2021/06/11 08:49:01;;;;;;;6.30;5.53;;;36.50;50.50;;;;;;5021007;28;20452;-72
2021/06/11 08:51:28;;;;;;;8.40;5.80;;;36.40;49.90;;;;;;5024730;28;20434;-71
2021/06/11 08:53:55;;;;;;;11.10;6.90;;;36.40;49.80;;;;;;5023005;28;20454;-72
2021/06/11 08:56:22;;;;;;;6.63;5.90;;;36.30;49.30;;;;;;5024354;28;20459;-71
2021/06/11 08:58:50;;;;;;;5.67;5.07;;;36.00;50.30;;;;;;5023995;28;20479;-71
2021/06/11 09:01:18;;;;;;;6.50;5.80;;;36.30;50.40;;;;;;5023624;28;20528;-71
2021/06/11 09:03:45;;;;;;;6.00;5.40;;;36.20;50.60;;;;;;5024782;28;20515;-70
2021/06/11 09:06:17;;;;;;;10.47;6.40;;;36.20;50.20;;;;;;5018886;28;20746;-72
2021/06/11 09:08:51;;;;;;;7.80;7.10;;;36.30;50.30;;;;;;5024196;28;20525;-71
2021/06/11 09:11:20;;;;;;;7.70;5.90;;;34.60;50.70;;;;;;5023858;28;20689;-71
2021/06/11 09:13:51;;;;;;;5.50;4.93;;;34.60;52.60;;;;;;5017760;28;20464;-71
2021/06/11 09:16:20;;;;;;;6.73;6.13;;;34.30;53.90;;;;;;5023074;28;20458;-71
2021/06/11 09:18:50;;;;;;;7.80;7.10;;;34.50;54.00;;;;;;5024483;28;20624;-72
2021/06/11 09:21:28;;;;;;;7.83;5.20;;;34.50;53.50;;;;;;5025474;28;20548;-72
2021/06/11 09:24:23;;;;;;;7.10;5.77;;;34.70;53.60;;;;;;5018701;28;20429;-72
2021/06/11 09:27:06;;;;;;;7.40;5.70;;;35.00;53.40;;;;;;5028092;28;20483;-72
2021/06/11 09:29:37;;;;;;;12.70;6.87;;;35.00;53.30;;;;;;5023005;28;20468;-72
2021/06/11 09:32:18;;;;;;;6.17;5.57;;;34.60;53.10;;;;;;5022726;28;20549;-71
2021/06/11 09:34:46;;;;;;;11.50;6.43;;;34.10;54.10;;;;;;5024226;28;20440;-71
2021/06/11 09:37:14;;;;;;;5.33;4.83;;;34.10;53.90;;;;;;5023485;28;20509;-71
2021/06/11 09:39:47;;;;;;;5.77;5.27;;;34.50;53.70;;;;;;5020850;28;20471;-71
2021/06/11 09:42:19;;;;;;;6.33;5.77;;;34.60;53.20;;;;;;5020598;28;20447;-71
2021/06/11 09:44:54;;;;;;;7.20;5.60;;;34.60;53.80;;;;;;5012189;28;20515;-71
2021/06/11 09:47:51;;;;;;;6.43;5.83;;;34.80;52.90;;;;;;5026665;28;20566;-72
2021/06/11 09:50:20;;;;;;;10.47;6.07;;;34.00;53.30;;;;;;5024529;28;20519;-71
2021/06/11 09:52:52;;;;;;;6.43;5.23;;;33.70;54.50;;;;;;5026713;28;20657;-72
2021/06/11 09:55:30;;;;;;;5.60;4.20;;;34.00;54.20;;;;;;5027411;28;20532;-71
2021/06/11 09:58:08;;;;;;;6.97;4.90;;;34.50;54.00;;;;;;5026993;28;20431;-72
2021/06/11 10:00:36;;;;;;;5.17;4.77;;;35.10;53.30;;;;;;5023076;28;20480;-72
2021/06/11 10:03:11;;;;;;;5.67;5.10;;;34.60;52.70;;;;;;5023033;28;20501;-73
2021/06/11 10:05:39;;;;;;;10.03;6.23;;;34.30;52.90;;;;;;5021429;28;20558;-72
2021/06/11 10:08:08;;;;;;;6.97;3.77;;;32.80;53.90;;;;;;5033001;28;20443;-73
2021/06/11 10:10:37;;;;;;;7.20;4.80;;;33.20;55.90;;;;;;5026897;28;20687;-72
2021/06/11 10:13:04;;;;;;;4.00;3.70;;;33.40;54.70;;;;;;5026418;28;20499;-73
2021/06/11 10:15:32;;;;;;;5.23;4.23;;;33.80;54.70;;;;;;5013838;28;20456;-71
2021/06/11 10:17:59;;;;;;;4.67;4.17;;;34.20;54.30;;;;;;5027159;28;20439;-72
2021/06/11 10:20:27;;;;;;;6.13;4.63;;;34.00;54.40;;;;;;5033960;28;20483;-71
2021/06/11 10:22:55;;;;;;;5.77;5.07;;;34.00;54.70;;;;;;5023680;28;20486;-72
2021/06/11 10:25:24;;;;;;;4.43;4.00;;;33.90;55.10;;;;;;5026395;28;20491;-71
2021/06/11 10:27:52;;;;;;;4.10;3.70;;;33.90;55.10;;;;;;5027085;28;20517;-72
2021/06/11 10:30:19;;;;;;;6.97;4.13;;;34.10;54.90;;;;;;5031643;28;20507;-72
2021/06/11 10:32:48;;;;;;;5.43;4.90;;;33.80;54.40;;;;;;5026473;28;20671;-69
2021/06/11 10:35:36;;;;;;;9.40;6.40;;;33.20;55.20;;;;;;5026448;28;20436;-70
2021/06/11 10:38:03;;;;;;;6.67;4.60;;;32.20;56.00;;;;;;5023826;28;20440;-72
2021/06/11 10:40:34;;;;;;;5.10;4.60;;;31.90;58.90;;;;;;5025529;28;20475;-71
2021/06/11 10:43:25;;;;;;;8.93;4.83;;;31.70;58.00;;;;;;5023374;28;20483;-72
2021/06/11 10:45:55;;;;;;;6.23;4.80;;;31.30;59.90;;;;;;5024577;28;20490;-73
2021/06/11 10:48:22;;;;;;;6.43;5.50;;;31.30;60.00;;;;;;5025572;28;20705;-72
2021/06/11 10:50:52;;;;;;;6.63;5.10;;;31.40;59.60;;;;;;5024591;28;20442;-71
2021/06/11 10:53:28;;;;;;;4.97;4.30;;;31.00;59.90;;;;;;5025337;28;20447;-72
2021/06/11 10:56:14;;;;;;;11.90;5.87;;;30.80;61.30;;;;;;5022834;28;20451;-72
2021/06/11 10:58:43;;;;;;;5.90;4.83;;;30.60;61.40;;;;;;5014764;28;20448;-72
2021/06/11 11:01:30;;;;;;;6.70;5.47;;;30.20;62.30;;;;;;5024038;28;20476;-72
2021/06/11 11:04:27;;;;;;;5.63;4.80;;;29.70;64.00;;;;;;5018561;28;20445;-72
2021/06/11 11:06:55;;;;;;;6.63;5.43;;;29.30;64.20;;;;;;5014709;28;20453;-73
2021/06/11 11:09:22;;;;;;;7.70;6.07;;;29.00;65.60;;;;;;5024793;28;20454;-71
2021/06/11 11:11:59;;;;;;;9.07;5.50;;;28.90;66.00;;;;;;5021753;28;20440;-72
2021/06/11 11:14:42;;;;;;;5.67;5.17;;;28.80;66.40;;;;;;5016154;28;20493;-72
2021/06/11 11:17:11;;;;;;;5.80;4.20;;;28.70;67.70;;;;;;5025187;28;20535;-71
2021/06/11 11:19:47;;;;;;;5.83;5.00;;;29.10;67.90;;;;;;5024374;28;20491;-72
2021/06/11 11:22:25;;;;;;;6.47;3.83;;;29.40;66.90;;;;;;5024628;28;20487;-72
2021/06/11 11:24:52;;;;;;;17.50;5.10;;;29.80;66.10;;;;;;5003412;28;20435;-72
2021/06/11 11:27:21;;;;;;;8.40;6.07;;;29.80;65.40;;;;;;5025616;28;20484;-71
2021/06/11 11:29:47;;;;;;;5.90;5.20;;;29.50;66.10;;;;;;5024250;28;20519;-71
2021/06/11 11:32:14;;;;;;;7.20;5.70;;;29.20;67.50;;;;;;5018615;28;20544;-72
2021/06/11 11:34:41;;;;;;;6.30;4.67;;;29.20;67.60;;;;;;5025394;28;20432;-71
2021/06/11 11:37:08;;;;;;;8.83;5.00;;;29.20;67.60;;;;;;5018266;28;20451;-70
2021/06/11 11:39:36;;;;;;;4.57;3.90;;;29.40;67.70;;;;;;5025372;28;20594;-70
2021/06/11 11:42:03;;;;;;;4.83;4.40;;;29.30;67.80;;;;;;5018581;28;20463;-70
2021/06/11 11:44:30;;;;;;;8.20;4.67;;;29.00;68.10;;;;;;5022793;28;20443;-71
2021/06/11 11:46:57;;;;;;;4.00;3.60;;;29.00;69.20;;;;;;5028809;28;20578;-72
2021/06/11 11:49:23;;;;;;;10.93;4.50;;;28.90;69.00;;;;;;5016816;28;20506;-69
2021/06/11 11:51:51;;;;;;;4.37;3.67;;;28.50;68.80;;;;;;5025235;28;20671;-70
2021/06/11 11:54:18;;;;;;;4.30;3.43;;;28.50;70.20;;;;;;5025890;28;20447;-71
2021/06/11 11:56:46;;;;;;;3.50;2.60;;;28.60;69.70;;;;;;5026507;28;20456;-73
2021/06/11 11:59:14;;;;;;;3.00;2.70;;;28.60;69.80;;;;;;5024369;28;20478;-73
2021/06/11 12:01:42;;;;;;;3.03;2.70;;;28.80;69.70;;;;;;5019230;28;20546;-72
2021/06/11 12:04:11;;;;;;;5.60;2.80;;;29.00;69.30;;;;;;5024832;28;20503;-71
2021/06/11 12:06:40;;;;;;;3.47;2.10;;;28.70;68.90;;;;;;5019374;28;20538;-71
2021/06/11 12:09:07;;;;;;;3.00;2.40;;;29.10;70.00;;;;;;5021608;28;20490;-69
2021/06/11 12:11:34;;;;;;;3.43;2.30;;;29.30;69.20;;;;;;5023994;28;20615;-71
2021/06/11 12:14:03;;;;;;;7.50;2.20;;;29.50;68.90;;;;;;5015658;28;20578;-72
2021/06/11 12:16:31;;;;;;;2.43;2.17;;;29.40;68.30;;;;;;5021849;28;20447;-71
2021/06/11 12:18:57;;;;;;;3.03;1.77;;;29.20;69.30;;;;;;5031867;28;20435;-71
2021/06/11 12:21:25;;;;;;;2.60;2.13;;;28.90;69.60;;;;;;5020193;28;20458;-70
2021/06/11 12:23:56;;;;;;;6.40;2.27;;;28.50;70.40;;;;;;5028510;28;20424;-72
2021/06/11 12:26:22;;;;;;;2.77;2.00;;;28.80;70.30;;;;;;5028960;28;20515;-70
2021/06/11 12:28:49;;;;;;;2.50;2.00;;;28.70;71.10;;;;;;5024408;28;20427;-72
2021/06/11 12:31:17;;;;;;;3.00;2.13;;;28.30;72.30;;;;;;5024783;28;20439;-74
2021/06/11 12:33:44;;;;;;;1.80;1.70;;;28.40;73.10;;;;;;5013426;28;20462;-72
2021/06/11 12:36:10;;;;;;;2.20;2.00;;;28.60;72.20;;;;;;5024076;28;20626;-70
2021/06/11 12:38:37;;;;;;;5.40;2.50;;;28.60;71.80;;;;;;5024132;28;20507;-69
2021/06/11 12:41:06;;;;;;;5.30;2.10;;;28.90;72.60;;;;;;5022411;28;20521;-72
2021/06/11 12:46:23;;;;;;;3.77;2.10;;;29.70;69.70;;;;;;5024482;28;20941;-71
2021/06/11 12:48:50;;;;;;;3.20;2.27;;;30.00;68.90;;;;;;5024336;28;20435;-70
2021/06/11 12:51:17;;;;;;;3.07;2.03;;;30.10;69.20;;;;;;5026234;28;20789;-71
2021/06/11 12:53:45;;;;;;;3.33;2.50;;;30.10;68.90;;;;;;5025055;28;20432;-70
2021/06/11 12:56:12;;;;;;;5.20;2.57;;;30.20;68.90;;;;;;5024546;28;20466;-70
2021/06/11 12:58:38;;;;;;;3.97;2.20;;;29.90;69.10;;;;;;5028096;28;20624;-71